Green Island, New York
Current Conditions -  °F | °C
As of 11:05 PM on Tuesday 21 Oct 2014 (Local Time) from KALB Reporting Station
Light Rain Light Rain  
Wind Chill: 50°   Ceiling: 6000
Heat Index: 50°   Visibility: 4mi
Dew Point: 47°   Wind: 7mph
Humidity: 89%   Direction: 10°N
Pressure: 30.02"   Gusts: NA
Location:  42.7483°N, 73.6935°W
Report Text: KALB 220305Z 01006KT 4SM -RA BR SCT010 OVC060 10/08 A3002 RMK AO2 P0004 T01000083
Loading
Personal Weather Stations






























Interactive Weather Map
Tropical Storm Tracking
New forecast layout! Learn more

10-Day Weather Forecast

Advertisements
Track Severe Weather on mobile